createdAt,value
2022-12-31T00:01:27.231Z,99833.53
2022-12-31T00:03:55.384Z,99820.72
2022-12-31T00:06:32.058Z,99819.88
2022-12-31T00:09:00.981Z,99819.88
2022-12-31T00:11:29.640Z,99804.44
2022-12-31T00:13:57.658Z,99814.78
2022-12-31T00:16:28.718Z,99817.31
2022-12-31T00:18:59.466Z,99823.34
2022-12-31T00:21:29.041Z,99817.38
2022-12-31T00:23:56.966Z,99825.06
2022-12-31T00:26:26.806Z,99816.56
2022-12-31T00:28:55.791Z,99829.41
2022-12-31T00:31:25.846Z,99838.84
2022-12-31T00:33:53.286Z,99829.41
2022-12-31T00:36:21.852Z,99840.56
2022-12-31T00:38:50.491Z,99825.16
2022-12-31T00:41:18.832Z,99825.16
2022-12-31T00:43:46.388Z,99804.69
2022-12-31T00:46:13.921Z,99822.66
2022-12-31T00:48:41.504Z,99816.66
2022-12-31T00:51:12.024Z,99809.81
2022-12-31T00:53:39.345Z,99804.69
2022-12-31T00:56:21.384Z,99806.38
2022-12-31T00:58:48.826Z,99803.00
2022-12-31T01:01:27.868Z,99794.44
2022-12-31T01:03:59.211Z,99804.69
2022-12-31T01:06:26.792Z,99796.13
2022-12-31T01:08:55.851Z,99792.72
2022-12-31T01:11:24.700Z,99804.69
2022-12-31T01:14:06.415Z,99802.16
2022-12-31T01:16:42.559Z,99812.47
2022-12-31T01:19:12.821Z,99803.03
2022-12-31T01:21:40.600Z,99801.34
2022-12-31T01:24:09.753Z,99799.63
2022-12-31T01:26:37.548Z,99787.63
2022-12-31T01:29:06.398Z,99783.38
2022-12-31T01:31:35.059Z,99778.22
2022-12-31T01:34:02.536Z,99782.53
2022-12-31T01:36:32.989Z,99777.41
2022-12-31T01:39:02.078Z,99788.53
2022-12-31T01:41:33.183Z,99788.50
2022-12-31T01:44:02.689Z,99794.50
2022-12-31T01:46:32.612Z,99790.22
2022-12-31T01:49:43.998Z,99792.81
2022-12-31T01:52:30.450Z,99784.22
2022-12-31T01:55:08.886Z,99784.22
2022-12-31T01:57:37.598Z,99792.81
2022-12-31T02:00:06.182Z,99795.34
2022-12-31T02:02:33.553Z,99806.50
2022-12-31T02:05:06.024Z,99813.34
2022-12-31T02:07:33.082Z,99808.22
2022-12-31T02:10:00.449Z,99811.63
2022-12-31T02:12:27.499Z,99808.22
2022-12-31T02:14:55.401Z,99790.25
2022-12-31T02:17:31.367Z,99813.34
2022-12-31T02:20:07.193Z,99809.09
2022-12-31T02:22:37.162Z,99805.66
2022-12-31T02:25:34.923Z,99803.09
2022-12-31T02:28:07.791Z,99800.50
2022-12-31T02:30:36.637Z,99794.50
2022-12-31T02:33:44.961Z,99795.34
2022-12-31T02:36:25.709Z,99778.22
2022-12-31T02:38:53.646Z,99775.63
2022-12-31T02:41:40.387Z,99784.19
2022-12-31T02:44:27.049Z,99782.50
2022-12-31T02:47:09.520Z,99775.66
2022-12-31T02:50:07.256Z,99785.06
2022-12-31T02:52:34.321Z,99784.19
2022-12-31T02:55:10.433Z,99782.50
2022-12-31T02:57:50.411Z,99784.19
2022-12-31T03:00:36.850Z,99779.03
2022-12-31T03:03:06.072Z,99788.47
2022-12-31T03:05:37.956Z,99802.19
2022-12-31T03:08:05.236Z,99796.19
2022-12-31T03:10:32.312Z,99796.19
2022-12-31T03:13:00.141Z,99806.47
2022-12-31T03:15:31.366Z,99797.88
2022-12-31T03:18:06.053Z,99806.47
2022-12-31T03:20:53.200Z,99798.78
2022-12-31T03:23:32.141Z,99806.47
2022-12-31T03:26:00.807Z,99806.44
2022-12-31T03:28:30.283Z,99825.28
2022-12-31T03:31:00.335Z,99828.75
2022-12-31T03:33:32.923Z,99828.75
2022-12-31T03:36:06.858Z,99830.44
2022-12-31T03:38:33.938Z,99821.88
2022-12-31T03:41:01.038Z,99831.31
2022-12-31T03:43:28.460Z,99823.59
2022-12-31T03:45:56.032Z,99827.88
2022-12-31T03:48:23.698Z,99825.31
2022-12-31T03:50:51.733Z,99815.88
2022-12-31T03:53:18.934Z,99827.88
2022-12-31T03:55:45.985Z,99814.16
2022-12-31T03:58:13.107Z,99821.00
2022-12-31T04:00:40.209Z,99822.72
2022-12-31T04:03:07.386Z,99816.72
2022-12-31T04:05:34.483Z,99817.56
2022-12-31T04:08:03.168Z,99815.88
2022-12-31T04:10:30.220Z,99816.72
2022-12-31T04:12:57.310Z,99816.69
2022-12-31T04:15:24.299Z,99833.84
2022-12-31T04:17:51.333Z,99833.84
2022-12-31T04:20:19.949Z,99834.69
2022-12-31T04:22:47.063Z,99835.53
2022-12-31T04:25:14.126Z,99840.66
2022-12-31T04:27:43.951Z,99827.81
2022-12-31T04:30:13.059Z,99831.22
2022-12-31T04:32:40.944Z,99837.22
2022-12-31T04:35:08.945Z,99821.75
2022-12-31T04:37:36.119Z,99823.47
2022-12-31T04:40:06.275Z,99828.63
2022-12-31T04:42:34.811Z,99830.31
2022-12-31T04:45:01.986Z,99802.91
2022-12-31T04:47:29.148Z,99820.03
2022-12-31T04:49:56.262Z,99808.91
2022-12-31T04:52:23.445Z,99823.44
2022-12-31T04:54:50.633Z,99821.72
2022-12-31T04:57:17.734Z,99784.91
2022-12-31T04:59:44.761Z,99816.56
2022-12-31T05:02:12.096Z,99816.59
2022-12-31T05:04:39.271Z,99820.84
2022-12-31T05:07:06.466Z,99820.00
2022-12-31T05:09:33.586Z,99816.53
2022-12-31T05:12:00.801Z,99817.44
2022-12-31T05:14:28.193Z,99818.25
2022-12-31T05:16:55.513Z,99828.56
2022-12-31T05:19:22.681Z,99838.84
2022-12-31T05:22:09.701Z,99840.56
2022-12-31T05:24:36.799Z,99852.59
2022-12-31T05:27:03.961Z,99838.00
2022-12-31T05:29:31.055Z,99849.13
2022-12-31T05:31:58.173Z,99840.53
2022-12-31T05:34:25.226Z,99843.97
2022-12-31T05:36:52.225Z,99854.25
2022-12-31T05:39:19.254Z,99855.97
2022-12-31T05:41:46.315Z,99847.38
2022-12-31T05:44:13.448Z,99838.78
2022-12-31T05:46:40.868Z,99842.22
2022-12-31T05:49:08.098Z,99843.94
2022-12-31T05:51:35.211Z,99833.69
2022-12-31T05:54:02.239Z,99842.22
2022-12-31T05:56:29.353Z,99839.66
2022-12-31T05:58:56.435Z,99841.34
2022-12-31T06:01:23.715Z,99848.22
2022-12-31T06:03:50.920Z,99837.06
2022-12-31T06:06:18.030Z,99849.09
2022-12-31T06:08:45.086Z,99845.66
2022-12-31T06:11:12.117Z,99843.09
2022-12-31T06:13:39.455Z,99845.66
2022-12-31T06:16:11.259Z,99838.81
2022-12-31T06:18:38.356Z,99842.22
2022-12-31T06:21:05.766Z,99848.25
2022-12-31T06:23:33.053Z,99841.38
2022-12-31T06:26:04.701Z,99839.66
2022-12-31T06:28:31.745Z,99837.09
2022-12-31T06:31:03.740Z,99837.06
2022-12-31T06:33:31.241Z,99834.50
2022-12-31T06:36:00.247Z,99840.47
2022-12-31T06:38:29.310Z,99840.47
2022-12-31T06:40:56.734Z,99847.34
2022-12-31T06:43:24.157Z,99836.19
2022-12-31T06:45:51.225Z,99831.06
2022-12-31T06:48:18.948Z,99844.78
2022-12-31T06:50:45.978Z,99850.75
2022-12-31T06:53:13.071Z,99845.59
2022-12-31T06:55:40.583Z,99863.66
2022-12-31T06:58:13.226Z,99858.47
2022-12-31T07:00:51.195Z,99862.75
2022-12-31T07:03:56.602Z,99857.59
2022-12-31T07:06:34.373Z,99855.03
2022-12-31T07:09:07.461Z,99862.72
2022-12-31T07:12:18.994Z,99864.47
2022-12-31T07:14:52.887Z,99852.41
2022-12-31T07:17:26.009Z,99846.38
2022-12-31T07:19:57.798Z,99849.81
2022-12-31T07:22:25.809Z,99836.09
2022-12-31T07:24:53.156Z,99831.78
2022-12-31T07:28:01.784Z,99836.94
2022-12-31T07:30:34.608Z,99842.06
2022-12-31T07:33:07.398Z,99833.47
2022-12-31T07:35:52.763Z,99838.59
2022-12-31T07:38:49.446Z,99838.59
2022-12-31T07:41:28.447Z,99843.72
2022-12-31T07:44:11.491Z,99835.97
2022-12-31T07:46:59.675Z,99829.13
2022-12-31T07:49:29.252Z,99842.00
2022-12-31T07:51:56.709Z,99845.41
2022-12-31T07:54:23.813Z,99843.72
2022-12-31T07:56:51.437Z,99853.94
2022-12-31T07:59:40.588Z,99860.81
2022-12-31T08:02:16.343Z,99869.38
2022-12-31T08:05:00.131Z,99872.81
2022-12-31T08:08:03.025Z,99884.81
2022-12-31T08:10:42.333Z,99867.63
2022-12-31T08:13:12.157Z,99860.75
2022-12-31T08:15:41.005Z,99859.03
2022-12-31T08:18:08.871Z,99865.84
2022-12-31T08:20:46.628Z,99870.97
2022-12-31T08:23:45.825Z,99869.25
2022-12-31T08:26:18.361Z,99854.63
2022-12-31T08:29:06.873Z,99864.06
2022-12-31T08:32:03.848Z,99860.63
2022-12-31T08:34:58.189Z,99864.03
2022-12-31T08:37:44.622Z,99871.72
2022-12-31T08:40:23.082Z,99868.28
2022-12-31T08:43:22.235Z,99859.66
2022-12-31T08:45:51.727Z,99863.91
2022-12-31T08:48:40.947Z,99853.56
2022-12-31T08:51:19.021Z,99861.25
2022-12-31T08:53:48.431Z,99855.25
2022-12-31T08:56:52.237Z,99863.78
2022-12-31T08:59:42.633Z,99860.28
2022-12-31T09:02:28.061Z,99861.94
2022-12-31T09:05:22.376Z,99845.59
2022-12-31T09:08:09.963Z,99849.78
2022-12-31T09:11:23.713Z,99852.34
2022-12-31T09:14:15.056Z,99844.56
2022-12-31T09:17:00.472Z,99834.25
2022-12-31T09:19:28.014Z,99829.16
2022-12-31T09:21:55.432Z,99818.06
2022-12-31T09:24:22.930Z,99827.53
2022-12-31T09:27:14.133Z,99820.72
2022-12-31T09:29:57.683Z,99813.88
2022-12-31T09:33:06.027Z,99825.06
2022-12-31T09:35:48.304Z,99822.50
2022-12-31T09:38:36.509Z,99812.19
2022-12-31T09:41:20.690Z,99795.84
2022-12-31T09:44:02.647Z,99789.81
2022-12-31T09:46:32.598Z,99776.03
2022-12-31T09:49:24.832Z,99784.66
2022-12-31T09:52:11.731Z,99772.63
2022-12-31T09:54:50.536Z,99776.03
2022-12-31T09:57:40.447Z,99773.47
2022-12-31T10:00:31.254Z,99777.59
2022-12-31T10:03:15.610Z,99779.19
2022-12-31T10:05:50.839Z,99763.59
2022-12-31T10:08:48.120Z,99772.03
2022-12-31T10:11:25.324Z,99773.66
2022-12-31T10:14:29.374Z,99771.88
2022-12-31T10:17:01.590Z,99770.06
2022-12-31T10:19:31.732Z,99758.84
2022-12-31T10:22:04.845Z,99763.13
2022-12-31T10:24:41.065Z,99778.63
2022-12-31T10:27:14.804Z,99770.84
2022-12-31T10:29:57.861Z,99742.38
2022-12-31T10:32:45.992Z,99745.78
2022-12-31T10:35:27.145Z,99732.69
2022-12-31T10:38:20.420Z,99736.88
2022-12-31T10:41:18.370Z,99757.34
2022-12-31T10:44:22.417Z,99736.66
2022-12-31T10:47:32.878Z,99734.88
2022-12-31T10:49:59.848Z,99720.19
2022-12-31T10:52:26.904Z,99711.50
2022-12-31T10:55:09.217Z,99710.59
2022-12-31T10:58:21.040Z,99674.41
2022-12-31T11:01:15.915Z,99707.03
2022-12-31T11:04:07.471Z,99700.94
2022-12-31T11:06:46.353Z,99701.72
2022-12-31T11:09:50.023Z,99705.94
2022-12-31T11:12:54.478Z,99691.13
2022-12-31T11:15:21.688Z,99690.94
2022-12-31T11:18:06.552Z,99699.47
2022-12-31T11:20:42.361Z,99686.41
2022-12-31T11:23:37.903Z,99680.31
2022-12-31T11:26:34.121Z,99709.41
2022-12-31T11:29:15.393Z,99700.66
2022-12-31T11:32:09.565Z,99707.38
2022-12-31T11:35:08.581Z,99695.06
2022-12-31T11:37:44.593Z,99694.97
2022-12-31T11:40:20.312Z,99700.84
2022-12-31T11:43:13.168Z,99691.22
2022-12-31T11:46:10.907Z,99692.78
2022-12-31T11:48:53.232Z,99696.19
2022-12-31T11:51:26.133Z,99698.72
2022-12-31T11:53:57.718Z,99688.34
2022-12-31T11:56:29.924Z,99695.13
2022-12-31T11:58:57.613Z,99690.75
2022-12-31T12:01:44.121Z,99686.41
2022-12-31T12:04:11.838Z,99674.25
2022-12-31T12:06:40.928Z,99669.88
2022-12-31T12:09:16.838Z,99659.44
2022-12-31T12:11:43.991Z,99663.56
2022-12-31T12:14:32.328Z,99657.38
2022-12-31T12:17:04.790Z,99658.13
2022-12-31T12:19:34.184Z,99663.22
2022-12-31T12:22:14.520Z,99649.38
2022-12-31T12:24:52.007Z,99663.22
2022-12-31T12:27:25.185Z,99664.00
2022-12-31T12:29:52.421Z,99663.06
2022-12-31T12:32:25.202Z,99646.59
2022-12-31T12:34:53.228Z,99656.06
2022-12-31T12:37:35.650Z,99656.72
2022-12-31T12:40:06.484Z,99645.41
2022-12-31T12:42:33.594Z,99649.59
2022-12-31T12:45:08.567Z,99655.50
2022-12-31T12:47:35.865Z,99639.84
2022-12-31T12:50:04.433Z,99649.28
2022-12-31T12:52:53.749Z,99646.72
2022-12-31T12:56:05.146Z,99644.84
2022-12-31T12:58:53.894Z,99645.47
2022-12-31T13:01:36.946Z,99647.09
2022-12-31T13:04:33.891Z,99638.44
2022-12-31T13:07:28.289Z,99646.94
2022-12-31T13:10:13.337Z,99657.16
2022-12-31T13:13:27.588Z,99657.16
2022-12-31T13:16:13.416Z,99638.16
2022-12-31T13:19:00.460Z,99619.47
2022-12-31T13:21:31.692Z,99653.41
2022-12-31T13:24:07.197Z,99659.34
2022-12-31T13:26:53.199Z,99654.28
2022-12-31T13:29:27.560Z,99673.44
2022-12-31T13:31:57.366Z,99670.03
2022-12-31T13:34:28.946Z,99673.44
2022-12-31T13:36:59.143Z,99678.63
2022-12-31T13:39:31.720Z,99689.88
2022-12-31T13:42:16.989Z,99689.97
2022-12-31T13:44:55.989Z,99695.16
2022-12-31T13:47:38.351Z,99698.66
2022-12-31T13:50:34.344Z,99695.16
2022-12-31T13:53:27.199Z,99695.16
2022-12-31T13:56:06.220Z,99682.31
2022-12-31T13:58:58.163Z,99692.72
2022-12-31T14:01:39.067Z,99686.72
2022-12-31T14:04:16.221Z,99692.94
2022-12-31T14:06:55.956Z,99679.94
2022-12-31T14:09:27.978Z,99691.16
2022-12-31T14:12:30.389Z,99700.78
2022-12-31T14:15:16.877Z,99700.81
2022-12-31T14:18:05.641Z,99700.91
2022-12-31T14:20:49.404Z,99702.63
2022-12-31T14:23:40.931Z,99699.13
2022-12-31T14:26:17.450Z,99712.91
2022-12-31T14:28:58.036Z,99707.66
2022-12-31T14:31:28.275Z,99710.25
2022-12-31T14:34:11.966Z,99708.56
2022-12-31T14:36:41.925Z,99714.59
2022-12-31T14:39:17.891Z,99715.50
2022-12-31T14:42:23.781Z,99718.13
2022-12-31T14:45:27.999Z,99716.53
2022-12-31T14:48:09.735Z,99707.91
2022-12-31T14:50:37.975Z,99716.53
2022-12-31T14:53:06.431Z,99725.91
2022-12-31T14:55:38.796Z,99738.84
2022-12-31T14:58:32.815Z,99740.72
2022-12-31T15:01:19.462Z,99747.75
2022-12-31T15:03:46.822Z,99768.50
2022-12-31T15:06:19.944Z,99765.09
2022-12-31T15:09:20.783Z,99773.75
2022-12-31T15:12:04.634Z,99772.00
2022-12-31T15:14:50.029Z,99767.56
2022-12-31T15:17:50.591Z,99755.50
2022-12-31T15:20:51.843Z,99759.88
2022-12-31T15:23:34.832Z,99743.00
2022-12-31T15:26:02.766Z,99763.38
2022-12-31T15:28:34.925Z,99762.47
2022-12-31T15:31:18.189Z,99771.91
2022-12-31T15:34:05.872Z,99765.91
2022-12-31T15:36:39.064Z,99761.63
2022-12-31T15:39:12.243Z,99761.53
2022-12-31T15:41:46.274Z,99771.84
2022-12-31T15:44:33.043Z,99775.31
2022-12-31T15:47:15.491Z,99770.13
2022-12-31T15:49:47.169Z,99762.47
2022-12-31T15:52:20.965Z,99765.09
2022-12-31T15:54:56.018Z,99765.16
2022-12-31T15:57:37.234Z,99772.06
2022-12-31T16:00:23.582Z,99772.13
2022-12-31T16:02:54.411Z,99777.38
2022-12-31T16:05:26.860Z,99784.38
2022-12-31T16:07:59.579Z,99791.25
2022-12-31T16:10:32.226Z,99782.56
2022-12-31T16:13:00.310Z,99777.47
2022-12-31T16:15:32.967Z,99791.16
2022-12-31T16:18:22.975Z,99789.31
2022-12-31T16:20:52.040Z,99802.22
2022-12-31T16:23:23.360Z,99796.13
2022-12-31T16:25:53.593Z,99813.41
2022-12-31T16:28:24.579Z,99801.97
2022-12-31T16:31:03.305Z,99800.09
2022-12-31T16:33:31.343Z,99806.13
2022-12-31T16:36:00.991Z,99799.94
2022-12-31T16:38:36.791Z,99818.00
2022-12-31T16:41:09.125Z,99809.38
2022-12-31T16:43:38.920Z,99805.03
2022-12-31T16:46:11.775Z,99814.59
2022-12-31T16:48:39.420Z,99814.59
2022-12-31T16:51:07.086Z,99820.63
2022-12-31T16:53:38.012Z,99816.34
2022-12-31T16:56:09.300Z,99814.75
2022-12-31T16:58:45.997Z,99824.19
2022-12-31T17:01:23.575Z,99823.25
2022-12-31T17:03:58.273Z,99828.47
2022-12-31T17:06:28.398Z,99828.44
2022-12-31T17:08:59.738Z,99831.78
2022-12-31T17:11:32.903Z,99828.38
2022-12-31T17:14:05.989Z,99842.09
2022-12-31T17:16:36.598Z,99838.59
2022-12-31T17:19:04.401Z,99826.44
2022-12-31T17:21:33.890Z,99818.75
2022-12-31T17:24:06.547Z,99820.44
2022-12-31T17:26:38.426Z,99828.97
2022-12-31T17:29:06.228Z,99833.22
2022-12-31T17:31:39.198Z,99845.34
2022-12-31T17:34:15.252Z,99841.84
2022-12-31T17:37:02.635Z,99850.53
2022-12-31T17:40:24.999Z,99859.34
2022-12-31T17:42:49.611Z,99847.34
2022-12-31T17:45:21.258Z,99857.78
2022-12-31T17:47:52.617Z,99857.75
2022-12-31T17:50:25.397Z,99862.09
2022-12-31T17:53:08.914Z,99864.69
2022-12-31T17:55:36.121Z,99869.97
2022-12-31T17:58:06.074Z,99876.03
2022-12-31T18:00:34.432Z,99876.09
2022-12-31T18:03:01.737Z,99885.72
2022-12-31T18:05:29.007Z,99886.69
2022-12-31T18:07:56.571Z,99878.09
2022-12-31T18:10:25.522Z,99887.72
2022-12-31T18:12:52.769Z,99891.22
2022-12-31T18:15:22.928Z,99889.47
2022-12-31T18:17:50.962Z,99889.47
2022-12-31T18:20:18.473Z,99884.28
2022-12-31T18:22:46.101Z,99862.94
2022-12-31T18:25:24.026Z,99884.38
2022-12-31T18:27:51.963Z,99878.41
2022-12-31T18:30:19.650Z,99866.59
2022-12-31T18:32:47.244Z,99893.97
2022-12-31T18:35:57.659Z,99887.94
2022-12-31T18:38:13.849Z,99896.53
2022-12-31T18:40:44.555Z,99893.03
2022-12-31T18:43:19.512Z,99886.16
2022-12-31T18:45:48.014Z,99901.66
2022-12-31T18:48:16.123Z,99895.50
2022-12-31T18:50:43.851Z,99891.13
2022-12-31T18:53:17.048Z,99864.69
2022-12-31T18:55:52.178Z,99882.53
2022-12-31T18:58:19.275Z,99877.34
2022-12-31T19:00:47.704Z,99868.63
2022-12-31T19:03:17.251Z,99880.75
2022-12-31T19:05:45.783Z,99862.63
2022-12-31T19:08:12.996Z,99866.13
2022-12-31T19:10:40.338Z,99870.47
2022-12-31T19:13:12.525Z,99865.34
2022-12-31T19:15:44.365Z,99867.13
2022-12-31T19:18:11.579Z,99875.72
2022-12-31T19:20:39.617Z,99878.25
2022-12-31T19:23:13.254Z,99867.81
2022-12-31T19:25:40.393Z,99867.78
2022-12-31T19:28:22.910Z,99880.69
2022-12-31T19:30:50.685Z,99882.38
2022-12-31T19:33:18.992Z,99882.34
2022-12-31T19:35:46.490Z,99885.72
2022-12-31T19:38:25.625Z,99880.41
2022-12-31T19:40:53.964Z,99883.72
2022-12-31T19:43:23.528Z,99876.84
2022-12-31T19:45:51.624Z,99878.53
2022-12-31T19:48:22.875Z,99880.25
2022-12-31T19:50:55.103Z,99880.25
2022-12-31T19:53:25.852Z,99887.94
2022-12-31T19:55:53.746Z,99875.00
2022-12-31T19:58:24.928Z,99863.78
2022-12-31T20:00:58.273Z,99873.22
2022-12-31T20:03:29.286Z,99873.16
2022-12-31T20:06:06.988Z,99878.25
2022-12-31T20:08:35.372Z,99884.34
2022-12-31T20:11:14.374Z,99877.34
2022-12-31T20:13:43.052Z,99883.38
2022-12-31T20:16:12.429Z,99885.94
2022-12-31T20:18:40.805Z,99873.84
2022-12-31T20:21:14.688Z,99877.25
2022-12-31T20:23:41.988Z,99860.91
2022-12-31T20:26:09.295Z,99873.72
2022-12-31T20:28:37.786Z,99879.81
2022-12-31T20:31:09.937Z,99883.28
2022-12-31T20:33:37.739Z,99879.75
2022-12-31T20:36:07.289Z,99864.09
2022-12-31T20:38:34.759Z,99883.09
2022-12-31T20:41:13.609Z,99870.09
2022-12-31T20:43:41.009Z,99865.78
2022-12-31T20:46:15.721Z,99871.06
2022-12-31T20:48:44.822Z,99880.59
2022-12-31T20:51:13.598Z,99876.25
2022-12-31T20:53:40.842Z,99868.53
2022-12-31T20:56:10.125Z,99881.34
2022-12-31T20:58:37.350Z,99874.56
2022-12-31T21:01:09.491Z,99878.81
2022-12-31T21:04:04.978Z,99881.44
2022-12-31T21:06:26.651Z,99876.25
2022-12-31T21:08:56.266Z,99895.25
2022-12-31T21:11:42.227Z,99908.13
2022-12-31T21:14:09.829Z,99894.31
2022-12-31T21:16:37.125Z,99884.00
2022-12-31T21:19:04.279Z,99883.16
2022-12-31T21:21:31.472Z,99886.69
2022-12-31T21:23:58.771Z,99889.28
2022-12-31T21:26:26.055Z,99897.00
2022-12-31T21:28:53.425Z,99894.47
2022-12-31T21:31:20.560Z,99881.44
2022-12-31T21:33:48.606Z,99887.44
2022-12-31T21:36:16.515Z,99893.53
2022-12-31T21:38:44.452Z,99887.44
2022-12-31T21:41:33.442Z,99896.94
2022-12-31T21:44:01.408Z,99880.50
2022-12-31T21:46:28.922Z,99905.63
2022-12-31T21:48:57.998Z,99909.88
2022-12-31T21:51:25.721Z,99907.31
2022-12-31T21:53:52.948Z,99893.53
2022-12-31T21:56:21.499Z,99900.44
2022-12-31T21:59:15.627Z,99898.66
2022-12-31T22:02:01.859Z,99908.16
2022-12-31T22:05:01.323Z,99910.81
2022-12-31T22:07:16.489Z,99922.88
2022-12-31T22:09:43.568Z,99915.94
2022-12-31T22:12:10.688Z,99923.59
2022-12-31T22:14:37.775Z,99928.81
2022-12-31T22:17:04.952Z,99919.25
2022-12-31T22:19:33.630Z,99914.06
2022-12-31T22:22:10.724Z,99931.34
2022-12-31T22:24:37.804Z,99916.59
2022-12-31T22:27:29.496Z,99920.88
2022-12-31T22:29:52.033Z,99908.81
2022-12-31T22:32:19.272Z,99923.53
2022-12-31T22:34:46.372Z,99924.38
2022-12-31T22:37:44.646Z,99897.59
2022-12-31T22:40:00.534Z,99915.75
2022-12-31T22:42:27.618Z,99914.00
2022-12-31T22:44:54.848Z,99914.06
2022-12-31T22:47:21.926Z,99916.75
2022-12-31T22:49:48.955Z,99921.03
2022-12-31T22:52:16.002Z,99913.31
2022-12-31T22:54:43.033Z,99921.03
2022-12-31T22:57:14.688Z,99915.75
2022-12-31T22:59:46.779Z,99920.97
2022-12-31T23:02:13.907Z,99915.81
2022-12-31T23:04:40.983Z,99914.91
2022-12-31T23:07:08.133Z,99922.69
2022-12-31T23:09:53.702Z,99903.69
2022-12-31T23:12:20.828Z,99900.94
2022-12-31T23:15:06.653Z,99905.31
2022-12-31T23:17:52.336Z,99898.50
2022-12-31T23:20:42.946Z,99908.72
2022-12-31T23:23:15.469Z,99906.03
2022-12-31T23:25:48.115Z,99907.03
2022-12-31T23:28:18.323Z,99913.06
2022-12-31T23:30:45.689Z,99908.72
2022-12-31T23:33:21.423Z,99908.63
2022-12-31T23:35:49.217Z,99893.06
2022-12-31T23:38:18.495Z,99886.13
2022-12-31T23:40:45.772Z,99889.59
2022-12-31T23:43:21.376Z,99893.84
2022-12-31T23:45:50.628Z,99891.28
2022-12-31T23:48:17.753Z,99894.72
2022-12-31T23:50:50.843Z,99881.75
2022-12-31T23:53:19.917Z,99894.78
2022-12-31T23:55:46.993Z,99892.94
2022-12-31T23:58:14.082Z,99899.81
